Time;durP1;ratioP1;P1;durP2;ratioP2;P2;SDS_P1;SDS_P2;PMS_P1;PMS_P2;Temp;Humidity;BMP_temperature;BMP_pressure;BME280_temperature;BME280_humidity;BME280_pressure;Samples;Min_cycle;Max_cycle;Signal;HPM_P1;HPM_P2
2023/10/23 00:01:38;;;;;;;0.80;0.80;;;;;;;;;;5042499;28;20084;-62
2023/10/23 00:04:04;;;;;;;0.95;0.80;;;;;;;;;;5040558;28;20378;-61
2023/10/23 00:06:30;;;;;;;0.50;0.50;;;;;;;;;;5041865;28;20052;-62
2023/10/23 00:08:56;;;;;;;0.80;0.70;;;;;;;;;;5042800;28;20057;-62
2023/10/23 00:11:23;;;;;;;0.60;0.60;;;;;;;;;;5041971;28;20052;-62
2023/10/23 00:13:49;;;;;;;0.50;0.50;;;;;;;;;;5039341;28;20060;-62
2023/10/23 00:16:15;;;;;;;1.58;0.60;;;;;;;;;;5041515;28;20163;-62
2023/10/23 00:18:41;;;;;;;0.90;0.90;;;;;;;;;;5042334;28;20083;-62
2023/10/23 00:21:08;;;;;;;0.60;0.60;;;;;;;;;;5043076;28;20404;-62
2023/10/23 00:23:34;;;;;;;0.70;0.65;;;;;;;;;;5043175;28;20347;-62
2023/10/23 00:26:00;;;;;;;0.88;0.80;;;;;;;;;;5041915;28;20464;-62
2023/10/23 00:28:26;;;;;;;1.00;0.80;;;;;;;;;;5042370;28;20131;-62
2023/10/23 00:30:52;;;;;;;1.13;0.90;;;;;;;;;;5041053;28;20056;-62
2023/10/23 00:33:18;;;;;;;0.65;0.65;;;;;;;;;;5043521;28;20385;-62
2023/10/23 00:35:44;;;;;;;0.75;0.75;;;;;;;;;;5042987;28;20045;-62
2023/10/23 00:38:10;;;;;;;0.57;0.55;;;;;;;;;;5041693;28;20846;-62
2023/10/23 00:40:36;;;;;;;0.90;0.90;;;;;;;;;;5044163;28;20041;-62
2023/10/23 00:43:12;;;;;;;1.10;1.00;;;;;;;;;;5040291;28;20048;-62
2023/10/23 00:45:44;;;;;;;0.80;0.80;;;;;;;;;;5041949;28;20052;-62
2023/10/23 00:48:10;;;;;;;0.98;0.90;;;;;;;;;;5043116;28;20057;-61
2023/10/23 00:50:36;;;;;;;0.70;0.70;;;;;;;;;;5039450;28;20556;-62
2023/10/23 00:53:02;;;;;;;0.90;0.90;;;;;;;;;;5039950;28;20084;-61
2023/10/23 00:55:28;;;;;;;0.80;0.80;;;;;;;;;;5040672;28;20040;-61
2023/10/23 00:57:54;;;;;;;0.68;0.68;;;;;;;;;;5057196;28;20045;-62
2023/10/23 01:00:20;;;;;;;0.98;0.70;;;;;;;;;;5039819;28;20041;-62
2023/10/23 01:02:46;;;;;;;0.68;0.68;;;;;;;;;;5041745;28;20045;-62
2023/10/23 01:05:12;;;;;;;0.73;0.73;;;;;;;;;;5041582;28;20082;-62
2023/10/23 01:07:38;;;;;;;0.60;0.60;;;;;;;;;;5042369;28;20067;-62
2023/10/23 01:10:05;;;;;;;0.55;0.55;;;;;;;;;;5041626;28;20040;-62
2023/10/23 01:12:31;;;;;;;0.85;0.50;;;;;;;;;;5038214;28;20185;-62
2023/10/23 01:14:57;;;;;;;0.73;0.70;;;;;;;;;;5042497;28;20510;-62
2023/10/23 01:17:23;;;;;;;0.93;0.80;;;;;;;;;;5043149;28;20044;-62
2023/10/23 01:19:49;;;;;;;1.10;0.98;;;;;;;;;;5041636;28;20032;-62
2023/10/23 01:22:15;;;;;;;1.05;0.70;;;;;;;;;;5043240;28;20101;-62
2023/10/23 01:24:41;;;;;;;1.77;0.90;;;;;;;;;;5042884;28;20067;-62
2023/10/23 01:27:07;;;;;;;0.75;0.75;;;;;;;;;;5041885;28;20045;-62
2023/10/23 01:29:33;;;;;;;0.88;0.60;;;;;;;;;;5042201;28;20059;-62
2023/10/23 01:31:59;;;;;;;0.52;0.52;;;;;;;;;;5043711;28;20416;-62
2023/10/23 01:34:25;;;;;;;0.60;0.60;;;;;;;;;;5047190;28;20056;-62
2023/10/23 01:36:51;;;;;;;0.90;0.70;;;;;;;;;;5047393;28;20040;-62
2023/10/23 01:39:17;;;;;;;0.70;0.70;;;;;;;;;;5046133;28;20463;-62
2023/10/23 01:41:44;;;;;;;1.10;0.82;;;;;;;;;;5046376;28;20057;-62
2023/10/23 01:44:10;;;;;;;0.70;0.70;;;;;;;;;;5046460;28;20068;-61
2023/10/23 01:46:36;;;;;;;0.93;0.75;;;;;;;;;;5046803;28;20663;-62
2023/10/23 01:49:02;;;;;;;0.80;0.80;;;;;;;;;;5045401;28;20053;-62
2023/10/23 01:51:28;;;;;;;0.90;0.90;;;;;;;;;;5046664;28;20048;-62
2023/10/23 01:53:54;;;;;;;0.93;0.93;;;;;;;;;;5047415;28;20057;-62
2023/10/23 01:56:20;;;;;;;1.10;0.95;;;;;;;;;;5046214;28;20099;-61
2023/10/23 01:58:46;;;;;;;0.95;0.90;;;;;;;;;;5047671;28;20825;-62
2023/10/23 02:01:22;;;;;;;1.25;1.00;;;;;;;;;;5046321;28;20114;-62
2023/10/23 02:03:49;;;;;;;0.82;0.82;;;;;;;;;;5045348;28;20053;-61
2023/10/23 02:06:15;;;;;;;0.93;0.93;;;;;;;;;;5045925;28;20774;-62
2023/10/23 02:08:41;;;;;;;0.80;0.80;;;;;;;;;;5047441;28;20107;-62
2023/10/23 02:11:10;;;;;;;0.82;0.60;;;;;;;;;;5047344;28;20503;-62
2023/10/23 02:13:37;;;;;;;0.80;0.65;;;;;;;;;;5045369;28;20066;-61
2023/10/23 02:16:03;;;;;;;1.02;0.90;;;;;;;;;;5044047;28;20049;-62
2023/10/23 02:18:29;;;;;;;1.60;1.50;;;;;;;;;;5046064;28;20040;-62
2023/10/23 02:20:55;;;;;;;1.00;1.00;;;;;;;;;;5047205;28;20061;-61
2023/10/23 02:23:21;;;;;;;0.90;0.90;;;;;;;;;;5042466;28;20045;-62
2023/10/23 02:25:47;;;;;;;0.98;0.98;;;;;;;;;;5046365;28;20086;-61
2023/10/23 02:28:14;;;;;;;0.65;0.65;;;;;;;;;;5047937;28;20053;-61
2023/10/23 02:30:40;;;;;;;1.20;1.10;;;;;;;;;;5045199;28;20119;-61
2023/10/23 02:33:12;;;;;;;1.30;1.20;;;;;;;;;;5047687;28;20291;-61
2023/10/23 02:35:37;;;;;;;1.00;0.90;;;;;;;;;;5045923;28;20045;-62
2023/10/23 02:38:04;;;;;;;1.30;1.20;;;;;;;;;;5044936;28;20056;-62
2023/10/23 02:40:30;;;;;;;1.33;1.00;;;;;;;;;;5043921;28;20055;-62
2023/10/23 02:42:56;;;;;;;1.05;0.90;;;;;;;;;;5044591;28;20439;-62
2023/10/23 02:45:22;;;;;;;1.23;1.13;;;;;;;;;;5045766;28;20120;-62
2023/10/23 02:47:48;;;;;;;0.60;0.60;;;;;;;;;;5045636;28;20480;-61
2023/10/23 02:50:14;;;;;;;1.13;1.02;;;;;;;;;;5045474;28;20559;-62
2023/10/23 02:52:40;;;;;;;1.25;0.98;;;;;;;;;;5044762;28;20092;-62
2023/10/23 02:55:06;;;;;;;0.73;0.73;;;;;;;;;;5046358;28;20116;-62
2023/10/23 02:57:32;;;;;;;1.10;1.00;;;;;;;;;;5044932;28;20067;-62
2023/10/23 02:59:59;;;;;;;1.58;1.05;;;;;;;;;;5043508;28;20114;-62
2023/10/23 03:02:25;;;;;;;1.20;1.10;;;;;;;;;;5043954;28;20057;-62
2023/10/23 03:04:51;;;;;;;1.00;0.90;;;;;;;;;;5043477;28;20059;-61
2023/10/23 03:07:17;;;;;;;1.27;0.90;;;;;;;;;;5046155;28;20115;-62
2023/10/23 03:09:43;;;;;;;1.13;1.02;;;;;;;;;;5045857;28;20052;-62
2023/10/23 03:12:09;;;;;;;1.10;1.00;;;;;;;;;;5044649;28;20617;-62
2023/10/23 03:14:35;;;;;;;1.10;1.08;;;;;;;;;;5044556;28;20603;-62
2023/10/23 03:17:01;;;;;;;1.10;1.00;;;;;;;;;;5044620;28;20484;-61
2023/10/23 03:19:27;;;;;;;1.35;1.25;;;;;;;;;;5045487;28;20063;-62
2023/10/23 03:21:53;;;;;;;0.98;0.98;;;;;;;;;;5044926;28;20076;-62
2023/10/23 03:24:19;;;;;;;0.93;0.93;;;;;;;;;;5042084;28;20045;-62
2023/10/23 03:26:45;;;;;;;0.80;0.80;;;;;;;;;;5044529;28;20060;-62
2023/10/23 03:29:11;;;;;;;1.00;0.90;;;;;;;;;;5044405;28;20052;-62
2023/10/23 03:31:37;;;;;;;1.63;1.30;;;;;;;;;;5045103;28;20045;-62
2023/10/23 03:34:04;;;;;;;0.85;0.85;;;;;;;;;;5042746;28;20048;-63
2023/10/23 03:36:30;;;;;;;1.73;1.30;;;;;;;;;;5061470;28;20055;-62
2023/10/23 03:38:56;;;;;;;1.00;1.00;;;;;;;;;;5043928;28;20033;-62
2023/10/23 03:41:22;;;;;;;1.00;1.00;;;;;;;;;;5060143;28;20055;-62
2023/10/23 03:43:48;;;;;;;0.85;0.80;;;;;;;;;;5044705;28;20411;-62
2023/10/23 03:46:14;;;;;;;1.17;1.08;;;;;;;;;;5045404;28;20052;-62
2023/10/23 03:48:40;;;;;;;0.88;0.88;;;;;;;;;;5044699;28;20052;-62
2023/10/23 03:51:06;;;;;;;1.08;1.00;;;;;;;;;;5043577;28;20049;-62
2023/10/23 03:53:32;;;;;;;0.70;0.70;;;;;;;;;;5044609;28;20120;-61
2023/10/23 03:55:58;;;;;;;0.90;0.90;;;;;;;;;;5039554;28;20470;-62
2023/10/23 03:58:24;;;;;;;0.85;0.85;;;;;;;;;;5043967;28;20689;-62
2023/10/23 04:00:53;;;;;;;1.10;1.00;;;;;;;;;;5045053;28;20049;-62
2023/10/23 04:03:19;;;;;;;1.10;0.88;;;;;;;;;;5043537;28;20375;-62
2023/10/23 04:05:45;;;;;;;1.15;1.08;;;;;;;;;;5041148;28;20428;-62
2023/10/23 04:08:11;;;;;;;0.70;0.65;;;;;;;;;;5043052;28;20056;-62
2023/10/23 04:10:37;;;;;;;0.77;0.77;;;;;;;;;;5043984;28;20057;-62
2023/10/23 04:13:03;;;;;;;0.60;0.60;;;;;;;;;;5044976;28;20122;-61
2023/10/23 04:15:29;;;;;;;1.00;0.85;;;;;;;;;;5041988;28;20037;-62
2023/10/23 04:17:55;;;;;;;0.70;0.70;;;;;;;;;;5043527;28;20044;-62
2023/10/23 04:20:21;;;;;;;0.90;0.90;;;;;;;;;;5043533;28;20052;-62
2023/10/23 04:22:47;;;;;;;1.88;1.00;;;;;;;;;;5044501;28;20119;-62
2023/10/23 04:25:13;;;;;;;1.00;0.90;;;;;;;;;;5044052;28;20048;-62
2023/10/23 04:27:39;;;;;;;1.15;1.05;;;;;;;;;;5043749;28;20396;-62
2023/10/23 04:30:05;;;;;;;1.00;0.98;;;;;;;;;;5042564;28;20056;-62
2023/10/23 04:32:31;;;;;;;0.85;0.85;;;;;;;;;;5043845;28;20863;-62
2023/10/23 04:34:57;;;;;;;1.33;1.23;;;;;;;;;;5042955;28;20490;-62
2023/10/23 04:37:23;;;;;;;0.75;0.75;;;;;;;;;;5042629;28;20041;-61
2023/10/23 04:39:49;;;;;;;1.27;1.17;;;;;;;;;;5043204;28;20052;-62
2023/10/23 04:42:15;;;;;;;0.93;0.82;;;;;;;;;;5043009;28;20049;-62
2023/10/23 04:44:41;;;;;;;0.80;0.80;;;;;;;;;;5041729;28;20052;-62
2023/10/23 04:47:07;;;;;;;1.50;1.40;;;;;;;;;;5042186;28;20159;-62
2023/10/23 04:49:33;;;;;;;2.35;1.02;;;;;;;;;;5041100;28;20049;-61
2023/10/23 04:51:59;;;;;;;0.90;0.90;;;;;;;;;;5041541;28;20563;-62
2023/10/23 04:54:25;;;;;;;1.20;1.10;;;;;;;;;;5043980;28;20045;-62
2023/10/23 04:56:51;;;;;;;0.90;0.90;;;;;;;;;;5040991;28;20099;-62
2023/10/23 04:59:17;;;;;;;0.82;0.82;;;;;;;;;;5042960;28;20081;-62
2023/10/23 05:01:43;;;;;;;1.00;1.00;;;;;;;;;;5045116;28;20045;-62
2023/10/23 05:04:09;;;;;;;1.10;1.10;;;;;;;;;;5042651;28;20110;-62
2023/10/23 05:06:36;;;;;;;0.98;0.98;;;;;;;;;;5040657;28;20052;-61
2023/10/23 05:09:02;;;;;;;1.13;1.02;;;;;;;;;;5042227;28;20053;-61
2023/10/23 05:11:29;;;;;;;1.42;1.33;;;;;;;;;;5042430;28;20045;-62
2023/10/23 05:13:55;;;;;;;1.10;1.10;;;;;;;;;;5042242;28;20052;-61
2023/10/23 05:16:21;;;;;;;1.60;1.38;;;;;;;;;;5043250;28;20044;-62
2023/10/23 05:18:47;;;;;;;1.55;1.20;;;;;;;;;;5043382;28;20083;-62
2023/10/23 05:21:13;;;;;;;1.35;1.25;;;;;;;;;;5044546;28;20088;-62
2023/10/23 05:23:40;;;;;;;1.30;1.20;;;;;;;;;;5043280;28;20501;-62
2023/10/23 05:26:08;;;;;;;1.25;1.20;;;;;;;;;;5041524;28;20412;-62
2023/10/23 05:28:34;;;;;;;1.42;1.33;;;;;;;;;;5042532;28;20052;-62
2023/10/23 05:31:00;;;;;;;1.40;1.30;;;;;;;;;;5043186;28;20045;-62
2023/10/23 05:33:26;;;;;;;1.00;1.00;;;;;;;;;;5042794;28;20459;-62
2023/10/23 05:36:03;;;;;;;2.08;1.88;;;;;;;;;;5043135;28;20037;-62
2023/10/23 05:38:29;;;;;;;1.70;1.60;;;;;;;;;;5040830;28;20480;-62
2023/10/23 05:40:56;;;;;;;1.27;1.17;;;;;;;;;;5041268;28;20200;-62
2023/10/23 05:43:22;;;;;;;1.48;1.38;;;;;;;;;;5042847;28;20037;-62
2023/10/23 05:45:48;;;;;;;1.83;1.50;;;;;;;;;;5043305;28;20484;-62
2023/10/23 05:48:14;;;;;;;1.30;1.20;;;;;;;;;;5040274;28;20056;-61
2023/10/23 05:50:40;;;;;;;1.55;1.45;;;;;;;;;;5042375;28;20053;-61
2023/10/23 05:53:06;;;;;;;1.33;1.23;;;;;;;;;;5058209;28;20584;-61
2023/10/23 05:55:35;;;;;;;1.33;1.23;;;;;;;;;;5041876;28;20049;-62
2023/10/23 05:58:02;;;;;;;1.65;1.55;;;;;;;;;;5042991;28;20052;-62
2023/10/23 06:00:28;;;;;;;1.70;1.60;;;;;;;;;;5042391;28;20345;-62
2023/10/23 06:02:54;;;;;;;1.50;1.40;;;;;;;;;;5042590;28;20118;-62
2023/10/23 06:05:20;;;;;;;1.48;1.38;;;;;;;;;;5042549;28;20048;-62
2023/10/23 06:07:46;;;;;;;1.23;1.13;;;;;;;;;;5044341;28;20482;-61
2023/10/23 06:10:12;;;;;;;1.25;1.08;;;;;;;;;;5042296;28;20057;-62
2023/10/23 06:12:38;;;;;;;1.13;1.00;;;;;;;;;;5043235;28;20049;-62
2023/10/23 06:15:05;;;;;;;1.27;1.17;;;;;;;;;;5041770;28;20388;-61
2023/10/23 06:17:31;;;;;;;2.35;1.25;;;;;;;;;;5042884;28;20045;-62
2023/10/23 06:19:57;;;;;;;1.38;1.27;;;;;;;;;;5046900;28;20045;-63
2023/10/23 06:22:23;;;;;;;1.45;1.35;;;;;;;;;;5043463;28;20055;-62
2023/10/23 06:24:49;;;;;;;1.65;1.55;;;;;;;;;;5044111;28;20045;-63
2023/10/23 06:27:15;;;;;;;1.48;1.38;;;;;;;;;;5044041;28;20048;-63
2023/10/23 06:29:41;;;;;;;1.52;1.30;;;;;;;;;;5047288;28;20045;-63
2023/10/23 06:32:07;;;;;;;1.30;1.20;;;;;;;;;;5047190;28;20047;-63
2023/10/23 06:34:33;;;;;;;1.60;1.50;;;;;;;;;;5046665;28;20045;-62
2023/10/23 06:36:59;;;;;;;1.55;1.45;;;;;;;;;;5047230;28;20048;-63
2023/10/23 06:39:25;;;;;;;1.65;1.55;;;;;;;;;;5047397;28;20057;-62
2023/10/23 06:41:52;;;;;;;1.05;1.00;;;;;;;;;;5047926;28;20048;-63
2023/10/23 06:44:19;;;;;;;1.52;1.42;;;;;;;;;;5046854;28;20053;-62
2023/10/23 06:46:45;;;;;;;1.15;1.05;;;;;;;;;;5047092;28;20423;-62
2023/10/23 06:49:11;;;;;;;1.10;0.90;;;;;;;;;;5045668;28;20057;-63
2023/10/23 06:51:37;;;;;;;1.20;1.10;;;;;;;;;;5046270;28;20507;-62
2023/10/23 06:54:04;;;;;;;1.38;1.27;;;;;;;;;;5045594;28;20049;-62
2023/10/23 06:56:30;;;;;;;1.40;1.30;;;;;;;;;;5037886;28;20080;-62
2023/10/23 06:58:56;;;;;;;1.17;1.10;;;;;;;;;;5042624;28;20041;-62
2023/10/23 07:01:22;;;;;;;1.00;0.90;;;;;;;;;;5045540;28;20049;-62
2023/10/23 07:03:48;;;;;;;1.05;1.05;;;;;;;;;;5045504;28;20250;-62
2023/10/23 07:06:14;;;;;;;1.05;0.95;;;;;;;;;;5044045;28;20452;-62
2023/10/23 07:08:40;;;;;;;0.93;0.90;;;;;;;;;;5043209;28;20076;-62
2023/10/23 07:11:16;;;;;;;1.40;1.10;;;;;;;;;;5041517;28;20518;-62
2023/10/23 07:13:42;;;;;;;0.80;0.80;;;;;;;;;;5043370;28;20513;-62
2023/10/23 07:16:09;;;;;;;1.17;1.08;;;;;;;;;;5044911;28;20282;-62
2023/10/23 07:18:35;;;;;;;1.05;0.90;;;;;;;;;;5041670;28;20049;-62
2023/10/23 07:21:01;;;;;;;1.40;1.25;;;;;;;;;;5040315;28;20586;-62
2023/10/23 07:23:28;;;;;;;1.30;1.20;;;;;;;;;;5043407;28;20044;-62
2023/10/23 07:26:01;;;;;;;1.33;1.23;;;;;;;;;;5042609;28;20057;-62
2023/10/23 07:28:26;;;;;;;1.33;1.23;;;;;;;;;;5040916;28;20098;-64
2023/10/23 07:30:52;;;;;;;1.23;1.13;;;;;;;;;;5040718;28;20444;-65
2023/10/23 07:33:18;;;;;;;1.50;1.40;;;;;;;;;;5041119;28;20089;-64
2023/10/23 07:35:45;;;;;;;1.50;1.40;;;;;;;;;;5045339;28;20072;-64
2023/10/23 07:38:10;;;;;;;1.27;1.17;;;;;;;;;;5045562;28;20053;-62
2023/10/23 07:40:43;;;;;;;1.63;1.52;;;;;;;;;;5045539;28;20114;-63
2023/10/23 07:43:09;;;;;;;1.30;1.20;;;;;;;;;;5042995;28;20080;-63
2023/10/23 07:45:39;;;;;;;2.00;1.60;;;;;;;;;;5043990;28;20095;-62
2023/10/23 07:48:05;;;;;;;1.98;1.88;;;;;;;;;;5039658;28;20071;-62
2023/10/23 07:50:35;;;;;;;1.67;1.58;;;;;;;;;;5045420;28;20053;-62
2023/10/23 07:53:01;;;;;;;1.38;1.27;;;;;;;;;;5042976;28;21192;-62
2023/10/23 07:55:27;;;;;;;1.42;1.33;;;;;;;;;;5044047;28;20387;-62
2023/10/23 07:57:53;;;;;;;1.75;1.50;;;;;;;;;;5042915;28;20048;-62
2023/10/23 08:00:19;;;;;;;1.73;1.63;;;;;;;;;;5038083;28;20455;-62
2023/10/23 08:02:45;;;;;;;1.58;1.48;;;;;;;;;;5039570;28;20048;-62
2023/10/23 08:05:12;;;;;;;1.85;1.65;;;;;;;;;;5044302;28;20064;-62
2023/10/23 08:07:38;;;;;;;1.73;1.63;;;;;;;;;;5044239;28;20080;-62
2023/10/23 08:10:04;;;;;;;1.83;1.73;;;;;;;;;;5042701;28;20557;-62
2023/10/23 08:12:30;;;;;;;1.73;1.63;;;;;;;;;;5040912;28;20523;-62
2023/10/23 08:14:56;;;;;;;1.55;1.45;;;;;;;;;;5042478;28;20045;-62
2023/10/23 08:17:22;;;;;;;1.55;1.45;;;;;;;;;;5039979;28;20109;-63
2023/10/23 08:19:48;;;;;;;1.30;1.20;;;;;;;;;;5041573;28;20037;-63
2023/10/23 08:22:14;;;;;;;2.97;2.17;;;;;;;;;;5039032;28;20048;-63
2023/10/23 08:24:40;;;;;;;2.10;1.88;;;;;;;;;;5041700;28;20052;-62
2023/10/23 08:27:06;;;;;;;2.00;1.80;;;;;;;;;;5036814;28;20064;-63
2023/10/23 08:29:32;;;;;;;1.77;1.67;;;;;;;;;;5056300;28;20037;-63
2023/10/23 08:31:59;;;;;;;1.77;1.65;;;;;;;;;;5056641;28;20045;-63
2023/10/23 08:34:25;;;;;;;1.67;1.58;;;;;;;;;;5039296;28;20049;-63
2023/10/23 08:36:51;;;;;;;1.80;1.70;;;;;;;;;;5040869;28;20539;-62
2023/10/23 08:39:19;;;;;;;2.28;1.70;;;;;;;;;;5041867;28;20075;-62
2023/10/23 08:41:45;;;;;;;1.58;1.48;;;;;;;;;;5040653;28;20059;-63
2023/10/23 08:44:12;;;;;;;1.45;1.33;;;;;;;;;;5058152;28;20053;-63
2023/10/23 08:46:40;;;;;;;1.70;1.60;;;;;;;;;;5042424;28;20498;-62
2023/10/23 08:49:06;;;;;;;1.63;1.42;;;;;;;;;;5042331;28;20507;-62
2023/10/23 08:51:32;;;;;;;1.80;1.70;;;;;;;;;;5040837;28;20132;-62
2023/10/23 08:54:02;;;;;;;2.05;1.88;;;;;;;;;;5059007;28;20074;-62
2023/10/23 08:56:29;;;;;;;2.03;1.58;;;;;;;;;;5036731;28;20056;-62
2023/10/23 08:58:59;;;;;;;1.40;1.30;;;;;;;;;;5042772;28;20120;-62
2023/10/23 09:01:26;;;;;;;1.83;1.63;;;;;;;;;;5043850;28;20075;-63
2023/10/23 09:03:52;;;;;;;1.73;1.63;;;;;;;;;;5038901;28;20090;-64
2023/10/23 09:06:18;;;;;;;1.70;1.60;;;;;;;;;;5041228;28;20052;-62
2023/10/23 09:08:45;;;;;;;1.80;1.70;;;;;;;;;;5041346;28;20045;-63
2023/10/23 09:11:11;;;;;;;1.38;1.27;;;;;;;;;;5041584;28;20060;-62
2023/10/23 09:13:38;;;;;;;1.75;1.65;;;;;;;;;;5042441;28;20056;-63
2023/10/23 09:16:05;;;;;;;1.63;1.52;;;;;;;;;;5041784;28;20048;-62
2023/10/23 09:18:32;;;;;;;1.50;1.40;;;;;;;;;;5041818;28;20082;-62
2023/10/23 09:20:58;;;;;;;1.90;1.80;;;;;;;;;;5042035;28;20513;-62
2023/10/23 09:23:24;;;;;;;1.60;1.50;;;;;;;;;;5039886;28;20077;-63
2023/10/23 09:25:50;;;;;;;1.52;1.42;;;;;;;;;;5039399;28;20124;-62
2023/10/23 09:28:17;;;;;;;1.77;1.67;;;;;;;;;;5040832;28;20057;-62
2023/10/23 09:30:44;;;;;;;1.63;1.52;;;;;;;;;;5043562;28;20579;-62
2023/10/23 09:33:14;;;;;;;1.42;1.33;;;;;;;;;;5040787;28;20290;-62
2023/10/23 09:35:40;;;;;;;1.48;1.38;;;;;;;;;;5041950;28;20059;-62
2023/10/23 09:38:12;;;;;;;1.45;1.35;;;;;;;;;;5041914;28;20515;-62
2023/10/23 09:40:38;;;;;;;;;;;;;;;;;;5041226;28;20048;-62
2023/10/23 09:43:06;;;;;;;1.52;1.42;;;;;;;;;;5041679;28;19925;-62
2023/10/23 09:45:32;;;;;;;1.30;1.20;;;;;;;;;;5042632;28;20044;-62
2023/10/23 09:48:00;;;;;;;1.95;1.38;;;;;;;;;;5042184;28;20036;-62
2023/10/23 09:50:27;;;;;;;1.30;1.20;;;;;;;;;;5041743;28;20360;-62
2023/10/23 09:52:56;;;;;;;1.40;1.30;;;;;;;;;;5041702;28;20060;-63
2023/10/23 09:55:26;;;;;;;1.35;1.25;;;;;;;;;;5045696;28;20045;-63
2023/10/23 09:57:53;;;;;;;1.42;1.33;;;;;;;;;;5044219;28;20047;-63
2023/10/23 10:00:20;;;;;;;1.48;1.38;;;;;;;;;;5045232;28;20052;-63
2023/10/23 10:02:49;;;;;;;1.40;1.30;;;;;;;;;;5047394;28;20437;-63
2023/10/23 10:05:27;;;;;;;1.70;1.60;;;;;;;;;;5045223;28;20048;-63
2023/10/23 10:08:03;;;;;;;2.05;1.88;;;;;;;;;;5041876;28;20100;-63
2023/10/23 10:10:30;;;;;;;1.45;1.35;;;;;;;;;;5038966;28;20493;-63
2023/10/23 10:12:56;;;;;;;1.58;1.48;;;;;;;;;;5046055;28;20049;-64
2023/10/23 10:15:23;;;;;;;1.42;1.33;;;;;;;;;;5044435;28;20067;-62
2023/10/23 10:17:49;;;;;;;1.70;1.60;;;;;;;;;;5045299;28;20084;-63
2023/10/23 10:20:19;;;;;;;1.42;1.33;;;;;;;;;;5061217;28;20423;-63
2023/10/23 10:22:46;;;;;;;1.58;1.48;;;;;;;;;;5044038;28;20148;-63
2023/10/23 10:25:13;;;;;;;1.60;1.50;;;;;;;;;;5061444;28;20103;-63
2023/10/23 10:27:39;;;;;;;1.65;1.55;;;;;;;;;;5044989;28;20053;-62
2023/10/23 10:30:05;;;;;;;1.90;1.80;;;;;;;;;;5044491;28;20037;-62
2023/10/23 10:32:35;;;;;;;1.70;1.60;;;;;;;;;;5046452;28;20041;-62
2023/10/23 10:35:07;;;;;;;1.70;1.60;;;;;;;;;;5044542;28;20144;-62
2023/10/23 10:37:33;;;;;;;1.92;1.83;;;;;;;;;;5059475;28;20552;-62
2023/10/23 10:39:59;;;;;;;1.55;1.45;;;;;;;;;;5044838;28;20045;-62
2023/10/23 10:42:29;;;;;;;1.58;1.48;;;;;;;;;;5044242;28;20045;-63
2023/10/23 10:44:59;;;;;;;2.53;1.98;;;;;;;;;;5041182;28;20048;-62
2023/10/23 10:47:38;;;;;;;2.13;1.92;;;;;;;;;;5045500;28;20049;-63
2023/10/23 10:50:05;;;;;;;2.92;2.25;;;;;;;;;;5057466;28;20045;-62
2023/10/23 10:52:35;;;;;;;2.05;1.88;;;;;;;;;;5043104;28;20049;-62
2023/10/23 10:55:11;;;;;;;2.33;2.20;;;;;;;;;;5044959;28;20052;-62
2023/10/23 10:57:40;;;;;;;2.28;1.88;;;;;;;;;;5041870;28;20044;-62
2023/10/23 11:00:07;;;;;;;1.70;1.60;;;;;;;;;;5043230;28;20052;-62
2023/10/23 11:02:33;;;;;;;1.83;1.73;;;;;;;;;;5044250;28;20049;-63
2023/10/23 11:04:59;;;;;;;1.45;1.35;;;;;;;;;;5060072;28;20060;-62
2023/10/23 11:07:26;;;;;;;1.42;1.33;;;;;;;;;;5045527;28;20560;-63
2023/10/23 11:09:52;;;;;;;1.50;1.10;;;;;;;;;;5045870;28;20052;-62
2023/10/23 11:12:19;;;;;;;2.38;1.38;;;;;;;;;;5041731;28;20094;-62
2023/10/23 11:14:48;;;;;;;1.45;1.10;;;;;;;;;;5044503;28;20056;-62
2023/10/23 11:17:14;;;;;;;1.13;1.02;;;;;;;;;;5042247;28;20045;-63
2023/10/23 11:19:42;;;;;;;0.85;0.85;;;;;;;;;;5044431;28;20408;-63
2023/10/23 11:22:12;;;;;;;1.60;1.35;;;;;;;;;;5043731;28;20122;-62
2023/10/23 11:24:38;;;;;;;0.90;0.90;;;;;;;;;;5041274;28;20045;-62
2023/10/23 11:27:04;;;;;;;1.65;1.08;;;;;;;;;;5043916;28;20526;-62
2023/10/23 11:29:38;;;;;;;1.00;0.90;;;;;;;;;;5043245;28;20124;-62
2023/10/23 11:32:04;;;;;;;0.70;0.70;;;;;;;;;;5045344;28;20051;-63
2023/10/23 11:34:30;;;;;;;0.60;0.60;;;;;;;;;;5043997;28;20049;-62
2023/10/23 11:36:56;;;;;;;1.30;0.95;;;;;;;;;;5038388;28;20119;-63
2023/10/23 11:39:22;;;;;;;1.05;1.00;;;;;;;;;;5041001;28;20068;-63
2023/10/23 11:41:56;;;;;;;1.30;1.10;;;;;;;;;;5045573;28;20041;-62
2023/10/23 11:44:26;;;;;;;1.08;1.08;;;;;;;;;;5043794;28;20191;-63
2023/10/23 11:46:55;;;;;;;1.20;1.10;;;;;;;;;;5043611;28;20043;-62
2023/10/23 11:49:24;;;;;;;0.80;0.80;;;;;;;;;;5043728;28;20514;-62
2023/10/23 11:51:50;;;;;;;0.75;0.75;;;;;;;;;;5043559;28;20516;-62
2023/10/23 11:54:17;;;;;;;1.67;1.20;;;;;;;;;;5040482;28;20045;-62
2023/10/23 11:56:43;;;;;;;1.60;1.50;;;;;;;;;;5043398;28;20040;-62
2023/10/23 11:59:20;;;;;;;0.77;0.77;;;;;;;;;;5042479;28;20502;-63
2023/10/23 12:01:46;;;;;;;4.30;1.25;;;;;;;;;;5043343;28;20040;-62
2023/10/23 12:04:13;;;;;;;1.30;0.90;;;;;;;;;;5043196;28;21070;-62
2023/10/23 12:06:40;;;;;;;0.80;0.80;;;;;;;;;;5043887;28;20465;-62
2023/10/23 12:09:06;;;;;;;0.68;0.60;;;;;;;;;;5042704;28;20056;-62
2023/10/23 12:11:34;;;;;;;0.70;0.68;;;;;;;;;;5043125;28;20128;-63
2023/10/23 12:14:01;;;;;;;1.23;0.70;;;;;;;;;;5043783;28;20500;-62
2023/10/23 12:16:28;;;;;;;0.98;0.50;;;;;;;;;;5038434;28;20045;-62
2023/10/23 12:18:54;;;;;;;0.57;0.50;;;;;;;;;;5059734;28;20040;-63
2023/10/23 12:21:20;;;;;;;0.75;0.40;;;;;;;;;;5040992;28;20053;-63
2023/10/23 12:23:46;;;;;;;0.20;0.20;;;;;;;;;;5059631;28;20052;-63
2023/10/23 12:26:12;;;;;;;0.25;0.25;;;;;;;;;;5039242;28;20057;-63
2023/10/23 12:28:38;;;;;;;1.23;0.43;;;;;;;;;;5042250;28;20040;-64
2023/10/23 12:31:04;;;;;;;0.52;0.20;;;;;;;;;;5042712;28;20052;-63
2023/10/23 12:33:31;;;;;;;0.75;0.22;;;;;;;;;;5042347;28;20069;-63
2023/10/23 12:36:00;;;;;;;0.60;0.60;;;;;;;;;;5042144;28;20049;-63
2023/10/23 12:38:26;;;;;;;0.50;0.40;;;;;;;;;;5042087;28;20041;-63
2023/10/23 12:40:52;;;;;;;0.57;0.57;;;;;;;;;;5045001;28;20489;-64
2023/10/23 12:43:18;;;;;;;0.63;0.63;;;;;;;;;;5042158;28;20553;-63
2023/10/23 12:45:46;;;;;;;0.52;0.52;;;;;;;;;;5041901;28;20048;-63
2023/10/23 12:48:12;;;;;;;0.57;0.40;;;;;;;;;;5042387;28;20052;-63
2023/10/23 12:50:38;;;;;;;0.35;0.35;;;;;;;;;;5043251;28;20110;-63
2023/10/23 12:53:05;;;;;;;1.88;0.75;;;;;;;;;;5041665;28;20041;-63
2023/10/23 12:55:31;;;;;;;3.60;0.73;;;;;;;;;;5036688;28;20126;-64
2023/10/23 12:57:57;;;;;;;1.65;0.65;;;;;;;;;;5038161;28;20044;-64
2023/10/23 13:00:23;;;;;;;0.70;0.70;;;;;;;;;;5043741;28;20412;-63
2023/10/23 13:02:49;;;;;;;2.67;1.02;;;;;;;;;;5043132;28;20071;-64
2023/10/23 13:05:15;;;;;;;1.10;0.70;;;;;;;;;;5041523;28;20064;-63
2023/10/23 13:07:41;;;;;;;0.98;0.90;;;;;;;;;;5042809;28;20798;-63
2023/10/23 13:10:07;;;;;;;1.75;1.33;;;;;;;;;;5040697;28;20053;-63
2023/10/23 13:12:34;;;;;;;1.67;1.45;;;;;;;;;;5041916;28;20080;-64
2023/10/23 13:15:00;;;;;;;1.92;1.58;;;;;;;;;;5043102;28;20048;-64
2023/10/23 13:17:26;;;;;;;1.55;1.27;;;;;;;;;;5042922;28;20045;-65
2023/10/23 13:19:54;;;;;;;1.52;1.42;;;;;;;;;;5043363;28;20542;-64
2023/10/23 13:22:20;;;;;;;1.60;1.50;;;;;;;;;;5038012;28;20056;-64
2023/10/23 13:24:46;;;;;;;1.75;1.65;;;;;;;;;;5039373;28;20484;-65
2023/10/23 13:27:15;;;;;;;2.60;2.40;;;;;;;;;;5059524;28;20053;-64
2023/10/23 13:29:41;;;;;;;2.38;2.17;;;;;;;;;;5046379;28;20086;-64
2023/10/23 13:32:07;;;;;;;2.47;2.20;;;;;;;;;;5045178;28;20084;-64
2023/10/23 13:34:33;;;;;;;2.10;2.00;;;;;;;;;;5042593;28;20056;-64
2023/10/23 13:36:59;;;;;;;1.80;1.70;;;;;;;;;;5045536;28;20053;-63
2023/10/23 13:39:25;;;;;;;2.95;2.67;;;;;;;;;;5045728;28;20048;-64
2023/10/23 13:41:52;;;;;;;2.15;1.95;;;;;;;;;;5047520;28;20045;-64
2023/10/23 13:44:19;;;;;;;3.10;2.30;;;;;;;;;;5042743;28;20049;-63
2023/10/23 13:46:45;;;;;;;2.00;1.67;;;;;;;;;;5041782;28;20080;-63
2023/10/23 13:49:11;;;;;;;2.13;1.75;;;;;;;;;;5036260;28;20056;-63
2023/10/23 13:51:38;;;;;;;2.30;2.10;;;;;;;;;;5042093;28;20091;-63
2023/10/23 13:54:04;;;;;;;2.25;2.03;;;;;;;;;;5047269;28;20049;-63
2023/10/23 13:56:30;;;;;;;1.95;1.85;;;;;;;;;;5045387;28;20051;-64
2023/10/23 13:58:56;;;;;;;2.30;2.10;;;;;;;;;;5061779;28;20403;-64
2023/10/23 14:01:23;;;;;;;2.25;2.05;;;;;;;;;;5058918;28;20056;-63
2023/10/23 14:03:50;;;;;;;2.30;1.70;;;;;;;;;;5041038;28;20128;-65
2023/10/23 14:06:16;;;;;;;1.67;1.58;;;;;;;;;;5057576;28;20111;-64
2023/10/23 14:08:42;;;;;;;1.60;1.50;;;;;;;;;;5045230;28;20110;-62
2023/10/23 14:11:11;;;;;;;1.70;1.60;;;;;;;;;;5041222;28;20040;-62
2023/10/23 14:13:38;;;;;;;2.05;1.90;;;;;;;;;;5043618;28;20052;-62
2023/10/23 14:16:04;;;;;;;1.88;1.77;;;;;;;;;;5044174;28;20373;-62
2023/10/23 14:18:31;;;;;;;2.17;1.98;;;;;;;;;;5042032;28;20060;-62
2023/10/23 14:20:57;;;;;;;2.00;1.90;;;;;;;;;;5045703;28;20132;-62
2023/10/23 14:23:23;;;;;;;1.83;1.73;;;;;;;;;;5061941;28;20053;-61
2023/10/23 14:25:51;;;;;;;1.20;1.10;;;;;;;;;;5046244;28;20052;-61
2023/10/23 14:28:17;;;;;;;1.30;1.20;;;;;;;;;;5044986;28;20044;-61
2023/10/23 14:30:43;;;;;;;0.73;0.73;;;;;;;;;;5041239;28;20475;-61
2023/10/23 14:33:09;;;;;;;1.00;0.90;;;;;;;;;;5061723;28;20048;-62
2023/10/23 14:35:38;;;;;;;1.13;1.02;;;;;;;;;;5044536;28;20059;-62
2023/10/23 14:38:04;;;;;;;0.98;0.85;;;;;;;;;;5046628;28;20045;-61
2023/10/23 14:40:30;;;;;;;0.90;0.70;;;;;;;;;;5044791;28;20503;-62